createdAt,value
2023-05-04T00:00:54.434Z,99.90
2023-05-04T00:03:24.690Z,99.90
2023-05-04T00:05:52.132Z,99.90
2023-05-04T00:08:28.987Z,99.90
2023-05-04T00:10:58.164Z,99.90
2023-05-04T00:13:25.153Z,99.90
2023-05-04T00:15:55.298Z,99.90
2023-05-04T00:18:24.207Z,99.90
2023-05-04T00:21:07.560Z,99.90
2023-05-04T00:23:35.566Z,99.90
2023-05-04T00:26:04.879Z,99.90
2023-05-04T00:28:35.493Z,99.90
2023-05-04T00:31:05.210Z,99.90
2023-05-04T00:33:33.394Z,99.90
2023-05-04T00:36:02.147Z,99.90
2023-05-04T00:38:29.543Z,99.90
2023-05-04T00:40:58.501Z,99.90
2023-05-04T00:43:27.339Z,99.90
2023-05-04T00:46:02.037Z,99.90
2023-05-04T00:48:32.623Z,99.90
2023-05-04T00:51:04.358Z,99.90
2023-05-04T00:53:31.325Z,99.90
2023-05-04T00:56:00.751Z,99.90
2023-05-04T00:58:29.161Z,99.90
2023-05-04T01:01:00.649Z,99.90
2023-05-04T01:03:30.555Z,99.90
2023-05-04T01:06:07.159Z,99.90
2023-05-04T01:08:46.027Z,99.90
2023-05-04T01:11:22.316Z,99.90
2023-05-04T01:13:53.260Z,99.90
2023-05-04T01:16:22.097Z,99.90
2023-05-04T01:18:49.089Z,99.90
2023-05-04T01:21:17.300Z,99.90
2023-05-04T01:23:49.096Z,99.90
2023-05-04T01:26:30.239Z,99.90
2023-05-04T01:29:28.028Z,99.90
2023-05-04T01:32:01.970Z,99.90
2023-05-04T01:34:38.251Z,99.90
2023-05-04T01:37:05.929Z,99.90
2023-05-04T01:39:33.290Z,99.90
2023-05-04T01:42:00.218Z,99.90
2023-05-04T01:44:32.491Z,99.90
2023-05-04T01:47:04.648Z,99.90
2023-05-04T01:49:32.858Z,99.90
2023-05-04T01:52:02.084Z,99.90
2023-05-04T01:54:32.094Z,99.90
2023-05-04T01:57:13.300Z,99.90
2023-05-04T02:02:26.001Z,99.90
2023-05-04T02:04:53.640Z,99.90
2023-05-04T02:07:20.435Z,99.90
2023-05-04T02:09:50.057Z,99.90
2023-05-04T02:12:16.887Z,99.90
2023-05-04T02:14:44.686Z,99.90
2023-05-04T02:17:11.848Z,99.90
2023-05-04T02:19:42.105Z,99.90
2023-05-04T02:22:09.306Z,99.90
2023-05-04T02:24:43.702Z,99.90
2023-05-04T02:27:21.473Z,99.90
2023-05-04T02:29:52.260Z,99.90
2023-05-04T02:32:19.764Z,99.90
2023-05-04T02:34:47.552Z,99.90
2023-05-04T02:37:18.222Z,99.90
2023-05-04T02:39:45.350Z,99.90
2023-05-04T02:42:15.909Z,99.90
2023-05-04T02:44:45.817Z,99.90
2023-05-04T02:47:15.318Z,99.90
2023-05-04T02:49:45.650Z,99.90
2023-05-04T02:52:17.609Z,99.90
2023-05-04T02:54:52.996Z,99.90
2023-05-04T02:57:22.920Z,99.90
2023-05-04T02:59:51.772Z,99.90
2023-05-04T03:02:20.299Z,99.90
2023-05-04T03:04:49.793Z,99.90
2023-05-04T03:07:17.578Z,99.90
2023-05-04T03:09:47.700Z,99.90
2023-05-04T03:12:19.594Z,99.90
2023-05-04T03:14:51.380Z,99.90
2023-05-04T03:17:18.665Z,99.90
2023-05-04T03:19:51.950Z,99.90
2023-05-04T03:22:21.598Z,99.90
2023-05-04T03:24:53.004Z,99.90
2023-05-04T03:27:21.304Z,99.90
2023-05-04T03:29:52.264Z,99.90
2023-05-04T03:32:25.609Z,99.90
2023-05-04T03:34:54.140Z,99.90
2023-05-04T03:37:21.908Z,99.90
2023-05-04T03:39:49.583Z,99.90
2023-05-04T03:42:19.524Z,99.90
2023-05-04T03:44:47.252Z,99.90
2023-05-04T03:47:14.760Z,99.90
2023-05-04T03:49:43.823Z,99.90
2023-05-04T03:52:10.727Z,99.90
2023-05-04T03:57:23.628Z,99.90
2023-05-04T03:59:51.610Z,99.90
2023-05-04T04:02:20.528Z,99.90
2023-05-04T04:04:48.574Z,99.90
2023-05-04T04:17:09.195Z,99.90
2023-05-04T04:19:47.051Z,99.90
2023-05-04T04:22:27.719Z,99.90
2023-05-04T04:25:03.819Z,99.90
2023-05-04T04:27:57.319Z,99.90
2023-05-04T04:30:27.382Z,99.90
2023-05-04T04:35:47.084Z,99.90
2023-05-04T04:38:27.503Z,99.90
2023-05-04T04:40:56.060Z,99.90
2023-05-04T04:43:26.875Z,99.90
2023-05-04T04:46:01.590Z,99.90
2023-05-04T04:48:32.718Z,99.90
2023-05-04T04:51:05.542Z,99.90
2023-05-04T04:53:39.252Z,99.90
2023-05-04T04:56:09.263Z,99.90
2023-05-04T05:04:29.112Z,99.90
2023-05-04T05:07:11.698Z,99.90
2023-05-04T05:09:43.784Z,98.90
2023-05-04T05:12:10.688Z,96.90
2023-05-04T05:14:38.041Z,97.70
2023-05-04T05:17:16.838Z,97.00
2023-05-04T05:19:52.018Z,95.90
2023-05-04T05:22:20.144Z,94.60
2023-05-04T05:24:47.241Z,94.30
2023-05-04T05:27:14.179Z,93.90
2023-05-04T05:29:41.921Z,92.00
2023-05-04T05:32:12.032Z,91.10
2023-05-04T05:34:42.217Z,91.90
2023-05-04T05:37:11.118Z,91.30
2023-05-04T05:39:39.265Z,91.30
2023-05-04T05:42:10.338Z,90.80
2023-05-04T05:44:40.419Z,90.20
2023-05-04T05:47:08.440Z,88.00
2023-05-04T05:49:35.603Z,87.00
2023-05-04T05:52:03.771Z,82.00
2023-05-04T05:54:32.137Z,81.60
2023-05-04T05:57:02.788Z,82.20
2023-05-04T05:59:29.600Z,81.30
2023-05-04T06:01:58.986Z,79.90
2023-05-04T06:09:35.141Z,75.70
2023-05-04T06:12:02.164Z,74.20
2023-05-04T06:14:36.280Z,73.20
2023-05-04T06:17:09.200Z,73.10
2023-05-04T06:19:37.719Z,70.00
2023-05-04T06:22:06.421Z,67.50
2023-05-04T06:24:34.852Z,67.00
2023-05-04T06:27:02.434Z,66.90
2023-05-04T06:29:31.670Z,65.50
2023-05-04T06:31:59.099Z,65.60
2023-05-04T06:34:25.971Z,62.70
2023-05-04T06:36:53.098Z,61.40
2023-05-04T06:39:21.887Z,59.70
2023-05-04T06:41:48.640Z,60.90
2023-05-04T06:44:18.539Z,61.20
2023-05-04T06:46:48.369Z,59.90
2023-05-04T06:49:18.564Z,60.30
2023-05-04T06:51:46.278Z,59.10
2023-05-04T06:54:18.310Z,58.70
2023-05-04T06:56:45.616Z,58.20
2023-05-04T06:59:15.382Z,57.80
2023-05-04T07:01:44.517Z,57.80
2023-05-04T07:04:12.156Z,57.10
2023-05-04T07:06:39.818Z,54.40
2023-05-04T07:09:08.370Z,56.80
2023-05-04T07:11:38.954Z,56.20
2023-05-04T07:14:07.931Z,55.50
2023-05-04T07:16:36.785Z,54.90
2023-05-04T07:19:04.657Z,53.10
2023-05-04T07:21:37.392Z,53.70
2023-05-04T07:24:07.019Z,52.70
2023-05-04T07:26:36.185Z,53.60
2023-05-04T07:29:03.069Z,52.10
2023-05-04T07:31:31.584Z,52.90
2023-05-04T07:33:58.734Z,52.30
2023-05-04T07:36:34.658Z,52.20
2023-05-04T07:39:01.783Z,51.60
2023-05-04T07:41:33.053Z,50.20
2023-05-04T07:43:59.829Z,48.70
2023-05-04T07:46:29.332Z,49.60
2023-05-04T07:48:56.750Z,47.40
2023-05-04T07:51:24.029Z,48.00
2023-05-04T07:53:51.542Z,46.80
2023-05-04T07:56:18.307Z,46.40
2023-05-04T07:58:45.374Z,45.70
2023-05-04T08:01:13.968Z,44.90
2023-05-04T08:03:41.820Z,44.50
2023-05-04T08:06:08.990Z,44.50
2023-05-04T08:08:37.348Z,44.50
2023-05-04T08:11:18.628Z,44.40
2023-05-04T08:13:48.805Z,44.40
2023-05-04T08:16:15.671Z,44.70
2023-05-04T08:18:43.525Z,45.30
2023-05-04T08:21:11.959Z,46.40
2023-05-04T08:23:39.789Z,47.40
2023-05-04T08:26:06.532Z,48.30
2023-05-04T08:28:41.966Z,48.90
2023-05-04T08:31:09.356Z,49.30
2023-05-04T08:33:36.121Z,49.90
2023-05-04T08:36:05.426Z,50.00
2023-05-04T08:38:40.020Z,50.10
2023-05-04T08:41:09.213Z,50.90
2023-05-04T08:43:38.542Z,51.50
2023-05-04T08:46:10.909Z,51.80
2023-05-04T08:48:37.941Z,51.30
2023-05-04T08:51:04.922Z,51.40
2023-05-04T08:53:35.424Z,50.80
2023-05-04T08:56:05.367Z,50.10
2023-05-04T08:58:38.253Z,50.10
2023-05-04T09:01:10.518Z,50.50
2023-05-04T09:03:43.579Z,51.00
2023-05-04T09:06:11.056Z,50.30
2023-05-04T09:08:38.444Z,50.20
2023-05-04T09:11:05.547Z,50.60
2023-05-04T09:13:34.347Z,50.70
2023-05-04T09:16:04.143Z,50.30
2023-05-04T09:18:38.261Z,49.90
2023-05-04T09:21:05.549Z,47.90
2023-05-04T09:23:45.649Z,47.60
2023-05-04T09:26:12.494Z,48.50
2023-05-04T09:28:39.637Z,49.30
2023-05-04T09:31:07.676Z,49.60
2023-05-04T09:33:35.743Z,48.80
2023-05-04T09:36:17.822Z,49.00
2023-05-04T09:38:44.731Z,49.30
2023-05-04T09:41:14.958Z,49.70
2023-05-04T09:43:43.984Z,49.90
2023-05-04T09:46:21.869Z,49.90
2023-05-04T09:49:00.557Z,49.40
2023-05-04T09:51:30.697Z,49.80
2023-05-04T09:53:58.361Z,50.30
2023-05-04T09:56:38.918Z,50.80
2023-05-04T09:59:07.194Z,50.90
2023-05-04T10:01:34.253Z,50.00
2023-05-04T10:04:10.266Z,49.70
2023-05-04T10:06:43.027Z,50.10
2023-05-04T10:09:09.866Z,50.70
2023-05-04T10:11:36.711Z,50.50
2023-05-04T10:14:05.739Z,50.60
2023-05-04T10:16:47.780Z,50.30
2023-05-04T10:19:22.643Z,50.00
2023-05-04T10:21:59.540Z,48.30
2023-05-04T10:24:51.744Z,48.20
2023-05-04T10:27:21.701Z,48.60
2023-05-04T10:29:49.492Z,49.40
2023-05-04T10:32:22.387Z,49.50
2023-05-04T10:34:49.738Z,49.40
2023-05-04T10:37:18.211Z,49.20
2023-05-04T10:39:54.622Z,49.60
2023-05-04T10:42:23.984Z,49.20
2023-05-04T10:44:58.479Z,49.80
2023-05-04T10:47:33.107Z,49.80
2023-05-04T10:50:15.796Z,49.90
2023-05-04T10:52:54.392Z,49.90
2023-05-04T10:55:22.393Z,48.80
2023-05-04T10:57:56.573Z,48.50
2023-05-04T11:00:31.708Z,48.60
2023-05-04T11:03:12.833Z,48.90
2023-05-04T11:05:52.403Z,48.90
2023-05-04T11:08:23.337Z,48.80
2023-05-04T11:11:07.132Z,48.70
2023-05-04T11:13:36.821Z,47.80
2023-05-04T11:16:07.074Z,47.50
2023-05-04T11:18:35.016Z,47.70
2023-05-04T11:21:04.811Z,46.80
2023-05-04T11:23:33.796Z,46.10
2023-05-04T11:26:15.130Z,45.70
2023-05-04T11:28:42.916Z,46.20
2023-05-04T11:31:20.570Z,46.70
2023-05-04T11:33:52.681Z,46.40
2023-05-04T11:36:21.536Z,47.10
2023-05-04T11:38:54.265Z,47.40
2023-05-04T11:41:29.891Z,47.70
2023-05-04T11:43:56.738Z,48.40
2023-05-04T11:46:24.033Z,48.50
2023-05-04T11:48:53.099Z,47.30
2023-05-04T11:51:26.140Z,47.60
2023-05-04T11:53:56.009Z,47.40
2023-05-04T11:56:22.994Z,47.20
2023-05-04T11:58:50.488Z,46.60
2023-05-04T12:01:20.837Z,47.00
2023-05-04T12:03:53.822Z,47.40
2023-05-04T12:06:36.661Z,46.50
2023-05-04T12:09:05.288Z,46.20
2023-05-04T12:11:32.533Z,46.40
2023-05-04T12:14:06.758Z,47.00
2023-05-04T12:16:36.877Z,48.00
2023-05-04T12:19:09.760Z,47.20
2023-05-04T12:21:37.284Z,47.50
2023-05-04T12:24:05.477Z,46.40
2023-05-04T12:26:33.616Z,46.90
2023-05-04T12:29:00.531Z,47.50
2023-05-04T12:31:29.451Z,47.70
2023-05-04T12:33:56.354Z,47.90
2023-05-04T12:36:23.264Z,48.10
2023-05-04T12:38:52.918Z,48.40
2023-05-04T12:41:19.843Z,48.50
2023-05-04T12:43:49.408Z,48.90
2023-05-04T12:46:21.535Z,49.20
2023-05-04T12:48:48.616Z,49.20
2023-05-04T12:51:16.824Z,48.90
2023-05-04T12:53:48.299Z,48.70
2023-05-04T12:56:16.535Z,48.80
2023-05-04T12:58:43.475Z,48.10
2023-05-04T13:01:13.175Z,47.70
2023-05-04T13:03:42.341Z,47.60
2023-05-04T13:06:09.579Z,47.70
2023-05-04T13:08:37.362Z,47.10
2023-05-04T13:11:04.370Z,47.20
2023-05-04T13:13:31.748Z,47.50
2023-05-04T13:16:01.426Z,47.90
2023-05-04T13:18:29.059Z,48.20
2023-05-04T13:21:00.069Z,48.20
2023-05-04T13:23:27.321Z,48.20
2023-05-04T13:25:54.604Z,47.80
2023-05-04T13:28:24.098Z,47.90
2023-05-04T13:30:50.953Z,47.20
2023-05-04T13:33:33.880Z,47.50
2023-05-04T13:36:02.152Z,47.10
2023-05-04T13:38:35.921Z,47.20
2023-05-04T13:41:05.377Z,47.10
2023-05-04T13:43:45.949Z,47.30
2023-05-04T13:46:15.376Z,46.30
2023-05-04T13:48:45.145Z,46.60
2023-05-04T13:51:17.339Z,46.30
2023-05-04T13:53:44.529Z,46.70
2023-05-04T13:56:11.328Z,46.40
2023-05-04T13:58:39.810Z,47.40
2023-05-04T14:01:09.149Z,47.50
2023-05-04T14:03:36.500Z,47.80
2023-05-04T14:06:04.391Z,47.20
2023-05-04T14:08:33.207Z,47.00
2023-05-04T14:11:00.567Z,47.50
2023-05-04T14:13:29.251Z,47.90
2023-05-04T14:15:56.633Z,48.10
2023-05-04T14:18:25.318Z,48.20
2023-05-04T14:20:54.601Z,48.20
2023-05-04T14:23:21.753Z,48.00
2023-05-04T14:25:54.069Z,48.00
2023-05-04T14:28:21.290Z,47.90
2023-05-04T14:30:49.384Z,47.90
2023-05-04T14:33:17.755Z,47.90
2023-05-04T14:35:47.961Z,47.40
2023-05-04T14:38:15.560Z,47.60
2023-05-04T14:40:42.598Z,48.00
2023-05-04T14:43:10.494Z,47.80
2023-05-04T14:45:41.040Z,47.70
2023-05-04T14:48:09.070Z,47.70
2023-05-04T14:50:36.144Z,47.80
2023-05-04T14:53:03.344Z,47.10
2023-05-04T14:55:33.617Z,47.40
2023-05-04T14:58:08.150Z,47.10
2023-05-04T15:00:41.021Z,47.30
2023-05-04T15:03:08.046Z,47.30
2023-05-04T15:05:35.706Z,47.40
2023-05-04T15:08:03.788Z,47.50
2023-05-04T15:10:31.087Z,47.60
2023-05-04T15:13:00.872Z,47.40
2023-05-04T15:15:30.593Z,46.70
2023-05-04T15:17:58.575Z,46.70
2023-05-04T15:20:25.763Z,46.90
2023-05-04T15:22:53.948Z,47.10
2023-05-04T15:25:26.830Z,47.40
2023-05-04T15:27:56.879Z,47.80
2023-05-04T15:30:25.712Z,48.30
2023-05-04T15:32:53.382Z,47.90
2023-05-04T15:35:20.494Z,47.90
2023-05-04T15:37:48.102Z,46.50
2023-05-04T15:40:18.039Z,45.80
2023-05-04T15:42:48.544Z,45.20
2023-05-04T15:45:17.123Z,44.50
2023-05-04T15:47:46.184Z,43.60
2023-05-04T15:50:14.499Z,44.60
2023-05-04T15:52:43.024Z,44.50
2023-05-04T15:55:25.524Z,44.50
2023-05-04T15:57:54.517Z,43.90
2023-05-04T16:00:22.666Z,44.30
2023-05-04T16:02:51.081Z,44.80
2023-05-04T16:08:04.580Z,45.50
2023-05-04T16:10:34.995Z,45.70
2023-05-04T16:13:09.797Z,45.50
2023-05-04T16:15:40.083Z,45.40
2023-05-04T16:18:08.304Z,45.50
2023-05-04T16:20:36.363Z,45.80
2023-05-04T16:23:05.901Z,45.90
2023-05-04T16:25:32.948Z,46.40
2023-05-04T16:28:02.540Z,46.50
2023-05-04T16:30:33.115Z,46.50
2023-05-04T16:33:07.394Z,46.50
2023-05-04T16:35:34.941Z,46.80
2023-05-04T16:38:02.837Z,47.00
2023-05-04T16:40:42.979Z,47.00
2023-05-04T16:43:14.985Z,47.10
2023-05-04T16:45:42.143Z,47.40
2023-05-04T16:50:57.066Z,47.50
2023-05-04T16:53:32.095Z,47.50
2023-05-04T16:56:04.227Z,46.40
2023-05-04T17:01:20.782Z,46.70
2023-05-04T17:03:56.141Z,46.50
2023-05-04T17:09:07.139Z,46.70
2023-05-04T17:11:37.467Z,46.80
2023-05-04T17:17:25.526Z,47.10
2023-05-04T17:20:01.130Z,47.40
2023-05-04T17:22:31.724Z,47.60
2023-05-04T17:24:58.937Z,47.80
2023-05-04T17:27:27.193Z,48.00
2023-05-04T17:29:55.970Z,48.10
2023-05-04T17:32:24.653Z,48.30
2023-05-04T17:34:51.835Z,48.40
2023-05-04T17:37:20.531Z,48.60
2023-05-04T17:39:47.755Z,48.60
2023-05-04T17:42:16.094Z,48.90
2023-05-04T17:44:43.031Z,49.10
2023-05-04T17:47:09.845Z,49.50
2023-05-04T17:49:39.894Z,49.70
2023-05-04T17:52:12.039Z,50.20
2023-05-04T17:54:44.792Z,50.60
2023-05-04T17:57:13.671Z,51.00
2023-05-04T18:02:24.099Z,51.60
2023-05-04T18:04:52.007Z,51.90
2023-05-04T18:07:18.730Z,52.10
2023-05-04T18:09:51.227Z,52.40
2023-05-04T18:12:18.076Z,52.70
2023-05-04T18:14:44.928Z,53.00
2023-05-04T18:17:16.517Z,53.40
2023-05-04T18:19:49.443Z,53.90
2023-05-04T18:22:27.218Z,54.30
2023-05-04T18:24:54.549Z,54.50
2023-05-04T18:27:21.783Z,55.10
2023-05-04T18:29:50.138Z,55.30
2023-05-04T18:32:18.522Z,55.50
2023-05-04T18:35:00.151Z,55.90
2023-05-04T18:37:38.470Z,56.30
2023-05-04T18:40:05.878Z,56.60
2023-05-04T18:42:34.157Z,57.00
2023-05-04T18:45:04.138Z,57.20
2023-05-04T18:47:34.097Z,57.60
2023-05-04T18:50:03.825Z,57.80
2023-05-04T18:52:32.703Z,58.00
2023-05-04T18:55:05.987Z,58.20
2023-05-04T18:57:38.046Z,58.40
2023-05-04T19:00:09.294Z,58.90
2023-05-04T19:02:37.304Z,58.80
2023-05-04T19:05:07.829Z,59.10
2023-05-04T19:07:34.695Z,59.30
2023-05-04T19:10:02.148Z,59.50
2023-05-04T19:12:29.505Z,59.90
2023-05-04T19:15:13.638Z,60.40
2023-05-04T19:17:42.503Z,60.90
2023-05-04T19:20:10.360Z,61.30
2023-05-04T19:22:37.639Z,62.10
2023-05-04T19:25:05.296Z,61.90
2023-05-04T19:27:32.514Z,62.30
2023-05-04T19:30:01.214Z,62.40
2023-05-04T19:32:28.659Z,62.50
2023-05-04T19:34:55.845Z,62.80
2023-05-04T19:37:24.684Z,63.40
2023-05-04T19:39:52.865Z,63.90
2023-05-04T19:42:20.040Z,64.50
2023-05-04T19:44:47.961Z,64.90
2023-05-04T19:47:15.263Z,65.10
2023-05-04T19:49:42.490Z,65.20
2023-05-04T19:52:10.772Z,65.40
2023-05-04T19:54:38.656Z,65.50
2023-05-04T19:57:11.129Z,65.60
2023-05-04T19:59:38.434Z,65.80
2023-05-04T20:02:05.470Z,66.10
2023-05-04T20:04:35.525Z,66.50
2023-05-04T20:12:31.623Z,67.50
2023-05-04T20:14:58.470Z,67.80
2023-05-04T20:17:26.288Z,68.40
2023-05-04T20:19:54.470Z,68.50
2023-05-04T20:25:06.454Z,69.10
2023-05-04T20:27:36.221Z,69.20
2023-05-04T20:32:50.492Z,69.60
2023-05-04T20:35:20.098Z,69.80
2023-05-04T20:37:48.250Z,70.10
2023-05-04T20:40:17.699Z,70.20
2023-05-04T20:42:51.059Z,70.50
2023-05-04T20:45:18.388Z,70.60
2023-05-04T20:50:27.366Z,71.20
2023-05-04T20:52:54.261Z,71.50
2023-05-04T20:55:21.546Z,71.70
2023-05-04T20:57:49.857Z,71.80
2023-05-04T21:00:16.980Z,72.30
2023-05-04T21:02:43.803Z,72.30
2023-05-04T21:05:11.244Z,72.30
2023-05-04T21:07:38.085Z,72.30
2023-05-04T21:10:05.413Z,72.60
2023-05-04T21:12:33.425Z,72.70
2023-05-04T21:15:00.167Z,73.10
2023-05-04T21:17:26.918Z,73.30
2023-05-04T21:19:55.317Z,73.20
2023-05-04T21:22:22.037Z,73.30
2023-05-04T21:24:51.246Z,73.40
2023-05-04T21:27:18.483Z,73.90
2023-05-04T21:29:45.447Z,73.90
2023-05-04T21:32:14.299Z,74.10
2023-05-04T21:34:41.029Z,74.70
2023-05-04T21:37:07.821Z,74.90
2023-05-04T21:39:34.665Z,75.20
2023-05-04T21:42:02.501Z,75.40
2023-05-04T21:44:30.633Z,75.20
2023-05-04T21:46:57.437Z,75.20
2023-05-04T21:49:24.825Z,75.50
2023-05-04T21:51:51.571Z,75.40
2023-05-04T21:54:18.572Z,76.00
2023-05-04T21:56:45.495Z,76.00
2023-05-04T21:59:13.432Z,76.10
2023-05-04T22:01:42.581Z,76.20
2023-05-04T22:04:09.665Z,76.50
2023-05-04T22:06:36.795Z,77.10
2023-05-04T22:09:04.488Z,77.40
2023-05-04T22:11:32.496Z,77.90
2023-05-04T22:13:59.311Z,78.10
2023-05-04T22:16:26.208Z,78.20
2023-05-04T22:18:53.546Z,78.50
2023-05-04T22:21:20.486Z,79.00
2023-05-04T22:23:47.806Z,79.40
2023-05-04T22:26:14.524Z,79.80
2023-05-04T22:28:41.391Z,80.10
2023-05-04T22:31:08.770Z,80.10
2023-05-04T22:33:35.588Z,80.70
2023-05-04T22:36:02.426Z,80.90
2023-05-04T22:38:30.270Z,81.20
2023-05-04T22:40:57.040Z,81.60
2023-05-04T22:43:24.945Z,82.10
2023-05-04T22:45:52.352Z,82.50
2023-05-04T22:48:20.111Z,83.40
2023-05-04T22:50:48.610Z,84.10
2023-05-04T22:53:15.811Z,85.10
2023-05-04T22:55:43.409Z,85.40
2023-05-04T22:58:11.378Z,86.10
2023-05-04T23:00:38.307Z,86.70
2023-05-04T23:03:06.809Z,87.00
2023-05-04T23:05:33.679Z,87.50
2023-05-04T23:08:00.948Z,88.00
2023-05-04T23:10:27.845Z,89.10
2023-05-04T23:12:54.675Z,90.30
2023-05-04T23:15:24.443Z,90.70
2023-05-04T23:17:51.340Z,91.20
2023-05-04T23:20:18.256Z,91.60
2023-05-04T23:22:45.102Z,92.20
2023-05-04T23:25:11.946Z,92.40
2023-05-04T23:27:39.536Z,92.60
2023-05-04T23:30:07.525Z,92.90
2023-05-04T23:32:34.746Z,93.40
2023-05-04T23:35:01.498Z,93.80
2023-05-04T23:37:32.075Z,94.00
2023-05-04T23:39:59.625Z,94.60
2023-05-04T23:42:27.891Z,94.90
2023-05-04T23:44:55.780Z,95.10
2023-05-04T23:47:23.538Z,95.60
2023-05-04T23:49:50.725Z,96.00
2023-05-04T23:52:17.569Z,96.10
2023-05-04T23:54:44.882Z,96.50
2023-05-04T23:57:11.700Z,96.60
2023-05-04T23:59:40.386Z,97.30
